SNA weather

John Wayne Airport-Orange County Airport
Santa Ana, California, United States

Public forecast

Using degrees Fahrenheit for public forecast. Weather courtesy of forecast.io.

Current aviation weather report (METAR) for John Wayne Airport-Orange County Airport

Retrieved 2019/10/18 23:53 UTC (57 minutes ago):

KSNA 182353Z 23007KT 10SM FEW200 23/12 A2988 RMK AO2 SLP116 T02330117 10250 20222 56003

Aviation forecast (TAF) for John Wayne Airport-Orange County Airport

Retrieved 2019-10-19 00:27 UTC (23 minutes ago):

TAF KSNA 182325Z 1900/1924 VRB04KT P6SM SKC FM192000 21008KT P6SM SKC